Time;durP1;ratioP1;P1;durP2;ratioP2;P2;SDS_P1;SDS_P2;PMS_P1;PMS_P2;Temp;Humidity;BMP_temperature;BMP_pressure;BME280_temperature;BME280_humidity;BME280_pressure;Samples;Min_cycle;Max_cycle;Signal;HPM_P1;HPM_P2
2024/04/19 00:00:06;;;;;;;7.72;4.28;;;4.70;99.90;;;;;;5432628;26;20022;-64
2024/04/19 00:02:52;;;;;;;7.20;4.15;;;4.70;99.90;;;;;;5474899;26;20014;-64
2024/04/19 00:05:41;;;;;;;6.57;3.97;;;4.70;99.90;;;;;;5477105;26;20009;-64
2024/04/19 00:08:27;;;;;;;10.80;4.60;;;4.70;99.90;;;;;;5465264;26;20012;-64
2024/04/19 00:11:13;;;;;;;6.82;3.90;;;4.70;99.90;;;;;;5482987;26;19998;-64
2024/04/19 00:13:59;;;;;;;5.18;3.58;;;4.60;99.90;;;;;;5489188;26;20486;-64
2024/04/19 00:16:45;;;;;;;11.90;3.83;;;4.70;99.90;;;;;;5392205;21;20016;-63
2024/04/19 00:19:31;;;;;;;9.75;3.65;;;4.70;99.90;;;;;;5365248;26;20027;-63
2024/04/19 00:22:18;;;;;;;4.85;3.70;;;4.70;99.90;;;;;;5352498;26;20000;-63
2024/04/19 00:25:04;;;;;;;6.78;3.63;;;4.70;99.90;;;;;;5340406;26;20170;-63
2024/04/19 00:27:50;;;;;;;9.50;3.60;;;4.70;99.90;;;;;;5355181;26;20008;-63
2024/04/19 00:30:36;;;;;;;6.22;2.90;;;4.60;99.90;;;;;;5350927;26;20001;-63
2024/04/19 00:33:22;;;;;;;7.63;3.97;;;4.70;99.90;;;;;;5369809;26;20004;-63
2024/04/19 00:36:08;;;;;;;15.63;3.50;;;4.60;99.90;;;;;;5351876;26;20052;-63
2024/04/19 00:38:54;;;;;;;8.05;3.85;;;4.70;99.90;;;;;;5360957;26;20496;-63
2024/04/19 00:41:40;;;;;;;14.20;3.93;;;4.60;99.90;;;;;;5342210;26;19997;-63
2024/04/19 00:44:31;;;;;;;5.72;3.50;;;4.70;99.90;;;;;;5357026;26;20356;-63
2024/04/19 00:47:17;;;;;;;10.52;4.10;;;4.60;99.90;;;;;;5360912;26;20349;-63
2024/04/19 00:50:03;;;;;;;14.38;4.03;;;4.60;99.90;;;;;;5344243;26;20008;-63
2024/04/19 00:52:49;;;;;;;5.00;2.75;;;4.60;99.90;;;;;;5362065;26;19996;-63
2024/04/19 00:55:35;;;;;;;11.75;3.70;;;4.60;99.90;;;;;;5342680;26;19997;-63
2024/04/19 00:58:22;;;;;;;9.68;3.45;;;4.60;99.90;;;;;;5362953;26;20475;-63
2024/04/19 01:01:10;;;;;;;9.15;3.80;;;4.60;99.90;;;;;;5344086;26;19996;-63
2024/04/19 01:03:56;;;;;;;8.05;4.38;;;4.60;99.90;;;;;;5353967;26;19993;-63
2024/04/19 01:06:42;;;;;;;8.32;3.60;;;4.60;99.90;;;;;;5345140;26;20016;-63
2024/04/19 01:09:27;;;;;;;8.73;4.18;;;4.60;99.90;;;;;;5338308;26;20349;-63
2024/04/19 01:12:13;;;;;;;8.48;4.00;;;4.60;99.90;;;;;;5348297;26;19997;-63
2024/04/19 01:14:59;;;;;;;13.65;4.18;;;4.60;99.90;;;;;;5346503;26;20007;-63
2024/04/19 01:17:45;;;;;;;6.60;3.33;;;4.60;99.90;;;;;;5354034;26;20013;-63
2024/04/19 01:20:31;;;;;;;8.27;3.63;;;4.60;99.90;;;;;;5355482;26;20012;-63
2024/04/19 01:23:18;;;;;;;11.32;4.10;;;4.60;99.90;;;;;;5354815;26;20001;-63
2024/04/19 01:26:04;;;;;;;8.80;4.15;;;4.60;99.90;;;;;;5356965;26;20005;-63
2024/04/19 01:28:50;;;;;;;10.43;3.80;;;4.60;99.90;;;;;;5365482;26;20026;-63
2024/04/19 01:31:36;;;;;;;6.82;3.55;;;4.70;99.90;;;;;;5347837;26;20097;-63
2024/04/19 01:34:22;;;;;;;8.40;3.88;;;4.70;99.90;;;;;;5341828;26;20011;-63
2024/04/19 01:37:08;;;;;;;9.55;4.28;;;4.70;99.90;;;;;;5349434;26;20008;-63
2024/04/19 01:39:54;;;;;;;12.23;4.30;;;4.70;99.90;;;;;;5357179;26;20655;-63
2024/04/19 01:42:40;;;;;;;8.27;4.20;;;4.70;99.90;;;;;;5348800;26;20006;-63
2024/04/19 01:45:26;;;;;;;9.60;3.95;;;4.70;99.90;;;;;;5347194;26;20080;-63
2024/04/19 01:48:11;;;;;;;8.63;3.42;;;4.60;99.90;;;;;;5361076;26;20012;-63
2024/04/19 01:50:57;;;;;;;10.70;4.88;;;4.60;99.90;;;;;;5348922;26;20007;-62
2024/04/19 01:53:43;;;;;;;11.75;5.20;;;4.60;99.90;;;;;;5342741;26;19998;-62
2024/04/19 01:56:29;;;;;;;18.50;6.60;;;4.50;99.90;;;;;;5355551;26;20504;-62
2024/04/19 01:59:15;;;;;;;13.07;6.68;;;4.40;99.90;;;;;;5353607;26;20016;-62
2024/04/19 02:02:00;;;;;;;10.32;5.95;;;4.30;99.90;;;;;;5357517;26;19996;-62
2024/04/19 02:04:47;;;;;;;9.40;6.00;;;4.30;99.90;;;;;;5358600;26;20049;-62
2024/04/19 02:07:33;;;;;;;13.43;6.05;;;4.20;99.90;;;;;;5358092;26;20019;-64
2024/04/19 02:10:19;;;;;;;14.65;6.38;;;4.10;99.90;;;;;;5344266;26;20437;-62
2024/04/19 02:13:05;;;;;;;11.45;5.97;;;4.10;99.90;;;;;;5354868;26;20016;-61
2024/04/19 02:15:51;;;;;;;11.52;5.35;;;4.10;99.90;;;;;;5349231;26;20380;-62
2024/04/19 02:18:37;;;;;;;10.52;5.72;;;4.00;99.90;;;;;;5359579;26;20438;-62
2024/04/19 02:21:27;;;;;;;10.23;5.80;;;4.00;99.90;;;;;;5358594;26;20517;-62
2024/04/19 02:24:13;;;;;;;10.45;5.78;;;4.00;99.90;;;;;;5359634;26;20019;-62
2024/04/19 02:27:00;;;;;;;15.95;6.28;;;4.00;99.90;;;;;;5359625;26;20019;-62
2024/04/19 02:32:51;;;;;;;13.18;5.18;;;3.90;99.90;;;;;;5343259;26;20005;-62
2024/04/19 02:35:37;;;;;;;10.18;5.85;;;4.00;99.90;;;;;;5349954;26;20008;-62
2024/04/19 02:38:22;;;;;;;9.80;6.13;;;3.90;99.90;;;;;;5360555;26;20011;-62
2024/04/19 02:41:08;;;;;;;13.13;6.43;;;3.90;99.90;;;;;;5358991;26;20346;-62
2024/04/19 02:43:54;;;;;;;9.68;6.28;;;3.90;99.90;;;;;;5361809;26;19996;-62
2024/04/19 02:46:40;;;;;;;10.95;6.65;;;3.90;99.90;;;;;;5346214;26;20561;-62
2024/04/19 02:49:26;;;;;;;17.23;8.23;;;3.90;99.90;;;;;;5356607;26;20016;-62
2024/04/19 02:52:12;;;;;;;12.55;6.35;;;3.90;99.90;;;;;;5352074;26;20055;-62
2024/04/19 02:54:58;;;;;;;12.70;7.38;;;3.90;99.90;;;;;;5350264;26;20731;-62
2024/04/19 02:57:44;;;;;;;12.48;6.38;;;3.80;99.90;;;;;;5357631;26;20081;-62
2024/04/19 03:00:30;;;;;;;10.70;6.45;;;3.70;99.90;;;;;;5353173;26;19992;-62
2024/04/19 03:03:16;;;;;;;9.02;5.45;;;3.70;99.90;;;;;;5355012;26;20012;-62
2024/04/19 03:06:02;;;;;;;8.87;6.03;;;3.60;99.90;;;;;;5344755;26;20075;-62
2024/04/19 03:08:47;;;;;;;8.17;5.73;;;3.60;99.90;;;;;;5351076;26;20219;-62
2024/04/19 03:11:33;;;;;;;7.72;5.32;;;3.60;99.90;;;;;;5339234;26;20777;-61
2024/04/19 03:14:19;;;;;;;6.72;4.68;;;3.60;99.90;;;;;;5339955;26;20496;-61
2024/04/19 03:17:06;;;;;;;8.00;4.72;;;3.50;99.90;;;;;;5350918;26;20083;-61
2024/04/19 03:19:54;;;;;;;6.15;4.03;;;3.50;99.90;;;;;;5340034;26;19993;-62
2024/04/19 03:22:40;;;;;;;6.20;4.60;;;3.40;99.90;;;;;;5373995;26;20428;-61
2024/04/19 03:25:26;;;;;;;6.50;4.47;;;3.40;99.90;;;;;;5324668;26;20015;-61
2024/04/19 03:28:12;;;;;;;4.60;3.58;;;3.40;99.90;;;;;;5331918;26;20015;-61
2024/04/19 03:30:57;;;;;;;5.83;3.90;;;3.40;99.90;;;;;;5321043;26;20001;-61
2024/04/19 03:33:43;;;;;;;4.13;3.35;;;3.40;99.90;;;;;;5330157;26;20012;-61
2024/04/19 03:36:29;;;;;;;4.30;3.47;;;3.30;99.90;;;;;;5332894;26;20552;-61
2024/04/19 03:39:15;;;;;;;3.90;2.85;;;3.30;99.90;;;;;;5345564;26;20484;-61
2024/04/19 03:42:02;;;;;;;3.78;2.88;;;3.30;99.90;;;;;;5332426;26;19996;-61
2024/04/19 03:47:52;;;;;;;3.55;2.75;;;3.30;99.90;;;;;;5338972;26;20588;-61
2024/04/19 03:50:39;;;;;;;12.50;2.75;;;3.30;99.90;;;;;;5332917;26;20012;-62
2024/04/19 03:53:24;;;;;;;3.50;2.63;;;3.30;99.90;;;;;;5331436;26;19997;-61
2024/04/19 03:56:10;;;;;;;2.80;2.50;;;3.30;99.90;;;;;;5341080;26;20008;-62
2024/04/19 03:58:56;;;;;;;6.07;2.33;;;3.20;99.90;;;;;;5341916;26;20017;-61
2024/04/19 04:01:42;;;;;;;3.47;2.90;;;3.30;99.90;;;;;;5329194;26;20404;-61
2024/04/19 04:04:28;;;;;;;3.22;2.83;;;3.30;99.90;;;;;;5331081;26;20274;-62
2024/04/19 04:07:14;;;;;;;2.95;2.47;;;3.20;99.90;;;;;;5347615;26;20015;-61
2024/04/19 04:10:00;;;;;;;2.50;2.30;;;3.30;99.90;;;;;;5342320;26;20245;-61
2024/04/19 04:12:46;;;;;;;3.30;2.30;;;3.30;99.90;;;;;;5341603;26;19998;-61
2024/04/19 04:15:32;;;;;;;2.47;2.28;;;3.20;99.90;;;;;;5343592;26;19997;-62
2024/04/19 04:18:18;;;;;;;2.58;2.35;;;3.20;99.90;;;;;;5363705;26;20004;-61
2024/04/19 04:21:04;;;;;;;3.58;2.20;;;3.20;99.90;;;;;;5355053;26;20004;-62
2024/04/19 04:23:50;;;;;;;2.72;2.40;;;3.20;99.90;;;;;;5356228;26;20009;-61
2024/04/19 04:26:36;;;;;;;1.92;1.60;;;3.20;99.90;;;;;;5349678;26;19996;-62
2024/04/19 04:29:22;;;;;;;2.72;2.10;;;3.10;99.90;;;;;;5355633;26;20039;-61
2024/04/19 04:32:08;;;;;;;3.50;2.00;;;3.20;99.90;;;;;;5355627;26;20073;-61
2024/04/19 04:34:53;;;;;;;2.87;2.03;;;3.20;99.90;;;;;;5362454;26;20275;-62
2024/04/19 04:37:39;;;;;;;2.60;2.10;;;3.20;99.90;;;;;;5356855;26;20015;-62
2024/04/19 04:40:25;;;;;;;1.90;1.70;;;3.20;99.90;;;;;;5339874;26;20004;-62
2024/04/19 04:43:14;;;;;;;2.17;1.92;;;3.20;99.90;;;;;;5349618;26;20650;-61
2024/04/19 04:46:00;;;;;;;2.03;1.73;;;3.20;99.90;;;;;;5358746;26;20015;-62
2024/04/19 04:48:46;;;;;;;2.33;1.80;;;3.20;99.90;;;;;;5362925;26;20740;-62
2024/04/19 04:51:32;;;;;;;1.90;1.70;;;3.20;99.90;;;;;;5362373;26;20646;-62
2024/04/19 04:54:18;;;;;;;3.10;1.87;;;3.20;99.90;;;;;;5368066;26;20036;-61
2024/04/19 04:57:07;;;;;;;1.88;1.60;;;3.10;99.90;;;;;;5350346;26;20074;-62
2024/04/19 04:59:53;;;;;;;2.00;1.67;;;3.10;99.90;;;;;;5358361;26;20001;-62
2024/04/19 05:02:39;;;;;;;2.20;1.67;;;3.10;99.90;;;;;;5355013;26;20098;-62
2024/04/19 05:05:25;;;;;;;4.72;1.92;;;3.00;99.90;;;;;;5356661;26;20008;-62
2024/04/19 05:08:11;;;;;;;1.80;1.45;;;3.10;99.90;;;;;;5360615;26;20001;-62
2024/04/19 05:10:57;;;;;;;1.88;1.63;;;3.10;99.90;;;;;;5354863;26;20000;-61
2024/04/19 05:13:43;;;;;;;1.38;1.27;;;3.10;99.90;;;;;;5355620;26;20015;-62
2024/04/19 05:16:29;;;;;;;1.77;1.33;;;3.10;99.90;;;;;;5330343;26;20044;-62
2024/04/19 05:19:15;;;;;;;1.45;1.13;;;3.10;99.90;;;;;;5358249;26;20091;-62
2024/04/19 05:22:00;;;;;;;1.48;1.15;;;3.10;99.90;;;;;;5350534;26;20008;-61
2024/04/19 05:24:46;;;;;;;1.67;1.30;;;3.10;99.90;;;;;;5345239;26;19997;-61
2024/04/19 05:27:32;;;;;;;1.02;0.93;;;3.10;99.90;;;;;;5359570;26;20068;-61
2024/04/19 05:30:18;;;;;;;1.30;1.17;;;3.10;99.90;;;;;;5350747;26;20347;-61
2024/04/19 05:33:05;;;;;;;1.20;1.10;;;3.10;99.90;;;;;;5360369;26;20251;-62
2024/04/19 05:35:51;;;;;;;2.40;1.10;;;3.10;99.90;;;;;;5357105;26;20015;-62
2024/04/19 05:38:37;;;;;;;1.20;0.90;;;3.10;99.90;;;;;;5347627;26;20354;-61
2024/04/19 05:41:23;;;;;;;1.42;1.10;;;3.10;99.90;;;;;;5359642;26;20554;-62
2024/04/19 05:44:09;;;;;;;1.42;1.00;;;3.10;99.90;;;;;;5340413;26;20455;-62
2024/04/19 05:46:55;;;;;;;0.80;0.80;;;3.20;99.90;;;;;;5339528;26;20082;-62
2024/04/19 05:49:42;;;;;;;1.73;0.70;;;3.20;99.90;;;;;;5337195;26;20051;-62
2024/04/19 05:52:29;;;;;;;0.55;0.47;;;3.30;99.90;;;;;;5344975;26;20412;-62
2024/04/19 05:55:17;;;;;;;0.85;0.65;;;;;;;;;;5357855;26;20449;-62
2024/04/19 05:58:04;;;;;;;1.70;0.80;;;;;;;;;;5360742;26;19996;-62
2024/04/19 06:00:50;;;;;;;1.77;0.45;;;;;;;;;;5338873;26;20015;-62
2024/04/19 06:03:36;;;;;;;0.60;0.60;;;;;;;;;;5350831;26;20513;-62
2024/04/19 06:06:23;;;;;;;0.40;0.40;;;;;;;;;;5347865;26;20074;-61
2024/04/19 06:09:09;;;;;;;0.60;0.50;;;;;;;;;;5345031;26;20000;-62
2024/04/19 06:11:55;;;;;;;0.98;0.70;;;;;;;;;;5340386;26;20038;-62
2024/04/19 06:14:42;;;;;;;0.75;0.63;;;;;;;;;;5354430;26;20007;-61
2024/04/19 06:17:28;;;;;;;0.55;0.52;;;;;;;;;;5355239;26;19993;-62
2024/04/19 06:20:14;;;;;;;0.45;0.40;;;;;;;;;;5355086;26;19993;-62
2024/04/19 06:23:01;;;;;;;0.43;0.40;;;;;;;;;;5346302;26;19996;-62
2024/04/19 06:25:47;;;;;;;0.50;0.50;;;;;;;;;;5337930;26;20001;-62
2024/04/19 06:28:38;;;;;;;0.40;0.32;;;;;;;;;;5359968;26;20019;-62
2024/04/19 06:31:24;;;;;;;0.30;0.28;;;;;;;;;;5347679;26;20004;-62
2024/04/19 06:34:10;;;;;;;0.30;0.30;;;;;;;;;;5362177;26;20000;-62
2024/04/19 06:39:26;;;;;;;1.60;0.50;;;;;;;;;;5365522;26;20044;-62
2024/04/19 06:42:13;;;;;;;1.75;0.40;;;;;;;;;;5384620;26;20015;-63
2024/04/19 06:44:59;;;;;;;1.50;0.40;;;;;;;;;;5396008;26;20848;-63
2024/04/19 06:47:45;;;;;;;0.63;0.43;;;;;;;;;;5393038;26;20014;-63
2024/04/19 06:50:31;;;;;;;0.30;0.30;;;;;;;;;;5387325;26;20011;-63
2024/04/19 06:53:18;;;;;;;0.30;0.30;;;;;;;;;;5375497;26;20007;-63
2024/04/19 06:56:05;;;;;;;2.35;0.40;;;;;;;;;;5378332;26;19996;-63
2024/04/19 06:58:51;;;;;;;0.32;0.30;;;;;;;;;;5389991;26;20000;-63
2024/04/19 07:01:37;;;;;;;0.30;0.30;;;;;;;;;;5393744;26;20007;-63
2024/04/19 07:04:24;;;;;;;0.38;0.30;;;;;;;;;;5398962;26;20000;-63
2024/04/19 07:07:10;;;;;;;0.30;0.30;;;;;;;;;;5396589;26;20014;-64
2024/04/19 07:09:56;;;;;;;0.30;0.30;;;;;;;;;;5390254;26;20000;-63
2024/04/19 07:12:43;;;;;;;0.20;0.20;;;;;;;;;;5391906;26;19999;-63
2024/04/19 07:15:29;;;;;;;0.20;0.20;;;;;;;;;;5401923;26;19992;-63
2024/04/19 07:18:21;;;;;;;1.48;0.20;;;;;;;;;;5397487;26;19999;-63
2024/04/19 07:21:07;;;;;;;0.20;0.20;;;;;;;;;;5394902;26;20004;-63
2024/04/19 07:23:53;;;;;;;1.27;0.30;;;;;;;;;;5394189;26;20016;-63
2024/04/19 07:26:40;;;;;;;0.20;0.20;;;;;;;;;;5395588;26;20444;-63
2024/04/19 07:29:26;;;;;;;0.25;0.25;;;;;;;;;;5390097;26;20004;-63
2024/04/19 07:32:12;;;;;;;0.38;0.30;;;;;;;;;;5395651;26;20030;-63
2024/04/19 07:34:58;;;;;;;0.22;0.22;;;;;;;;;;5407179;26;20329;-63
2024/04/19 07:37:45;;;;;;;0.38;0.20;;;;;;;;;;5394915;26;19999;-63
2024/04/19 07:40:33;;;;;;;0.43;0.20;;;;;;;;;;5396088;26;20031;-63
2024/04/19 07:43:19;;;;;;;7.13;0.20;;;;;;;;;;5378711;26;20004;-63
2024/04/19 07:46:05;;;;;;;0.25;0.25;;;;;;;;;;5399645;26;19995;-62
2024/04/19 07:48:52;;;;;;;0.25;0.20;;;;;;;;;;5401111;26;20076;-61
2024/04/19 07:51:38;;;;;;;0.30;0.30;;;;;;;;;;5391508;26;20008;-64
2024/04/19 07:54:24;;;;;;;0.20;0.20;;;;;;;;;;5400818;26;20332;-64
2024/04/19 07:57:11;;;;;;;0.47;0.20;;;;;;;;;;5386107;26;20343;-66
2024/04/19 07:59:59;;;;;;;0.13;0.13;;;;;;;;;;5395412;26;19996;-63
2024/04/19 08:02:46;;;;;;;0.77;0.30;;;;;;;;;;5386611;26;20026;-63
2024/04/19 08:05:32;;;;;;;0.38;0.20;;;;;;;;;;5397686;26;20003;-63
2024/04/19 08:08:18;;;;;;;0.20;0.20;;;;;;;;;;5399954;26;20076;-63
2024/04/19 08:11:05;;;;;;;0.10;0.10;;;;;;;;;;5374328;26;20000;-63
2024/04/19 08:13:51;;;;;;;0.10;0.10;;;;;;;;;;5397361;26;20421;-63
2024/04/19 08:16:37;;;;;;;0.25;0.20;;;;;;;;;;5375967;26;20498;-64
2024/04/19 08:19:23;;;;;;;0.10;0.10;;;;;;;;;;5399738;26;20018;-63
2024/04/19 08:22:11;;;;;;;0.30;0.20;;;;;;;;;;5394895;26;20472;-63
2024/04/19 08:24:57;;;;;;;0.22;0.20;;;;;;;;;;5396275;26;20004;-63
2024/04/19 08:27:43;;;;;;;1.88;0.20;;;;;;;;;;5391177;26;20457;-63
2024/04/19 08:30:29;;;;;;;2.20;0.15;;;;;;;;;;5396767;26;21244;-62
2024/04/19 08:33:16;;;;;;;1.05;0.20;;;;;;;;;;5396248;26;19996;-61
2024/04/19 08:36:02;;;;;;;0.20;0.20;;;;;;;;;;5395337;26;20004;-62
2024/04/19 08:38:48;;;;;;;0.20;0.20;;;;;;;;;;5401764;26;20694;-62
2024/04/19 08:41:35;;;;;;;0.20;0.20;;;;;;;;;;5393037;26;20085;-63
2024/04/19 08:44:22;;;;;;;0.75;0.13;;;;;;;;;;5395108;26;20027;-63
2024/04/19 08:47:09;;;;;;;0.10;0.10;;;;;;;;;;5398216;26;20479;-63
2024/04/19 08:49:56;;;;;;;0.20;0.10;;;;;;;;;;5397549;26;20003;-62
2024/04/19 08:52:45;;;;;;;0.40;0.20;;;;;;;;;;5390834;26;20610;-63
2024/04/19 08:55:31;;;;;;;0.20;0.20;;;;;;;;;;5392396;26;20014;-63
2024/04/19 08:58:18;;;;;;;0.30;0.20;;;;;;;;;;5393579;26;19996;-63
2024/04/19 09:01:05;;;;;;;0.10;0.10;;;;;;;;;;5393867;26;20899;-63
2024/04/19 09:03:52;;;;;;;0.20;0.20;;;;;;;;;;5387820;26;20019;-63
2024/04/19 09:06:38;;;;;;;;;;;;;;;;;;5398625;26;20356;-63
2024/04/19 09:09:25;;;;;;;0.10;0.10;;;;;;;;;;5388504;26;19965;-63
2024/04/19 09:12:11;;;;;;;0.10;0.10;;;;;;;;;;5396486;26;20373;-63
2024/04/19 09:14:58;;;;;;;0.20;0.20;;;;;;;;;;5395372;26;19999;-63
2024/04/19 09:17:46;;;;;;;0.30;0.20;;;;;;;;;;5397631;26;20081;-63
2024/04/19 09:20:32;;;;;;;0.30;0.20;;;;;;;;;;5397056;26;20000;-63
2024/04/19 09:23:18;;;;;;;0.52;0.10;;;;;;;;;;5394196;26;20549;-63
2024/04/19 09:26:05;;;;;;;0.47;0.20;;;;;;;;;;5395153;26;20250;-62
2024/04/19 09:28:52;;;;;;;0.13;0.13;;;;;;;;;;5388832;26;20004;-63
2024/04/19 09:31:42;;;;;;;0.10;0.10;;;;;;;;;;5390890;26;20517;-62
2024/04/19 09:34:29;;;;;;;3.03;0.20;;;;;;;;;;5393024;26;20468;-63
2024/04/19 09:37:16;;;;;;;0.38;0.30;;;;;;;;;;5390833;26;20013;-63
2024/04/19 09:40:02;;;;;;;0.20;0.20;;;;;;;;;;5396348;26;20003;-65
2024/04/19 09:42:49;;;;;;;2.83;0.20;;;;;;;;;;5395379;26;20009;-64
2024/04/19 09:45:35;;;;;;;;;;;;;;;;;;5381146;26;20011;-64
2024/04/19 09:48:22;;;;;;;1.38;0.22;;;;;;;;;;5396539;26;19964;-64
2024/04/19 09:51:13;;;;;;;0.22;0.22;;;;;;;;;;5397156;26;19999;-62
2024/04/19 09:54:02;;;;;;;0.20;0.20;;;;;;;;;;5399866;26;20080;-62
2024/04/19 09:56:51;;;;;;;0.10;0.10;;;;;;;;;;5400524;26;19999;-62
2024/04/19 09:59:38;;;;;;;0.20;0.20;;;;;;;;;;5398586;26;19999;-63
2024/04/19 10:02:25;;;;;;;0.75;0.22;;;;;;;;;;5371062;26;20574;-63
2024/04/19 10:05:11;;;;;;;0.75;0.20;;;;;;;;;;5402989;26;19995;-64
2024/04/19 10:07:58;;;;;;;0.65;0.20;;;;;;;;;;5398710;26;20020;-65
2024/04/19 10:10:44;;;;;;;1.42;0.20;;;;;;;;;;5398010;26;20782;-64
2024/04/19 10:13:31;;;;;;;1.10;0.30;;;;;;;;;;5399684;26;20003;-65
2024/04/19 10:16:17;;;;;;;0.20;0.20;;;;;;;;;;5388915;26;19992;-65
2024/04/19 10:19:03;;;;;;;0.55;0.20;;;;;;;;;;5390541;26;20007;-60
2024/04/19 10:21:54;;;;;;;0.20;0.20;;;;;;;;;;5393067;26;20039;-63
2024/04/19 10:24:40;;;;;;;1.98;0.60;;;;;;;;;;5398576;26;20348;-63
2024/04/19 10:27:30;;;;;;;0.20;0.20;;;;;;;;;;5392026;26;20336;-63
2024/04/19 10:30:17;;;;;;;0.43;0.20;;;;;;;;;;5398397;26;20014;-64
2024/04/19 10:33:03;;;;;;;0.20;0.20;;;;;;;;;;5397543;26;20066;-63
2024/04/19 10:35:52;;;;;;;0.30;0.30;;;;;;;;;;5381635;26;20520;-65
2024/04/19 10:38:38;;;;;;;0.25;0.25;;;;;;;;;;5393864;26;20003;-64
2024/04/19 10:41:25;;;;;;;2.65;0.30;;;;;;;;;;5401582;26;20000;-64
2024/04/19 10:44:13;;;;;;;0.30;0.30;;;;;;;;;;5393997;26;20011;-63
2024/04/19 10:47:00;;;;;;;0.85;0.20;;;;;;;;;;5374750;26;20019;-64
2024/04/19 10:49:46;;;;;;;0.40;0.20;;;;;;;;;;5397070;26;19999;-64
2024/04/19 10:52:36;;;;;;;0.95;0.20;;;;;;;;;;5388553;26;20604;-63
2024/04/19 10:55:23;;;;;;;0.40;0.20;;;;;;;;;;5374179;26;20003;-63
2024/04/19 10:58:09;;;;;;;0.20;0.20;;;;;;;;;;5389103;26;20101;-63
2024/04/19 11:00:55;;;;;;;0.40;0.20;;;;;;;;;;5391624;26;20748;-63
2024/04/19 11:03:42;;;;;;;2.50;0.30;;;;;;;;;;5396961;26;19996;-63
2024/04/19 11:06:29;;;;;;;0.20;0.20;;;;;;;;;;5385837;26;20000;-63
2024/04/19 11:09:16;;;;;;;1.17;0.20;;;;;;;;;;5392757;26;20012;-63
2024/04/19 11:12:03;;;;;;;0.13;0.10;;;;;;;;;;5393789;26;20467;-63
2024/04/19 11:14:50;;;;;;;0.45;0.30;;;;;;;;;;5398080;26;20007;-63
2024/04/19 11:17:37;;;;;;;0.20;0.20;;;;;;;;;;5367405;26;20027;-63
2024/04/19 11:20:24;;;;;;;1.08;0.30;;;;;;;;;;5399672;26;20063;-63
2024/04/19 11:23:10;;;;;;;0.73;0.32;;;;;;;;;;5392281;26;20756;-62
2024/04/19 11:25:56;;;;;;;0.17;0.17;;;;;;;;;;5398027;26;20015;-63
2024/04/19 11:28:47;;;;;;;1.95;0.40;;;;;;;;;;5395700;26;20010;-63
2024/04/19 11:31:33;;;;;;;0.40;0.22;;;;;;;;;;5385750;26;20004;-63
2024/04/19 11:34:19;;;;;;;0.73;0.25;;;;;;;;;;5389124;26;20458;-63
2024/04/19 11:37:05;;;;;;;1.08;0.20;;;;;;;;;;5393603;26;20007;-63
2024/04/19 11:39:52;;;;;;;0.32;0.20;;;;;;;;;;5365636;26;20018;-63
2024/04/19 11:42:38;;;;;;;3.42;0.30;;;;;;;;;;5391012;26;20007;-62
2024/04/19 11:45:25;;;;;;;0.32;0.30;;;;;;;;;;5386866;26;19999;-63
2024/04/19 11:48:32;;;;;;;0.68;0.20;;;;;;;;;;5380907;26;20176;-63
2024/04/19 11:51:19;;;;;;;0.43;0.30;;;;;;;;;;5385751;26;20693;-64
2024/04/19 11:54:06;;;;;;;0.13;0.13;;;;;;;;;;5384976;26;20007;-64
2024/04/19 11:56:52;;;;;;;0.88;0.20;;;;;;;;;;5377174;26;20011;-63
2024/04/19 11:59:39;;;;;;;0.20;0.10;;;;;;;;;;5385544;26;19995;-63
2024/04/19 12:02:25;;;;;;;0.63;0.20;;;;;;;;;;5383946;26;20018;-63
2024/04/19 12:05:11;;;;;;;0.30;0.25;;;;;;;;;;5384671;26;20000;-64
2024/04/19 12:07:57;;;;;;;8.18;1.65;;;;;;;;;;5387103;26;20008;-63
2024/04/19 12:10:44;;;;;;;0.20;0.20;;;;;;;;;;5387125;26;20015;-64
2024/04/19 12:13:30;;;;;;;0.40;0.20;;;;;;;;;;5390730;26;20019;-63
2024/04/19 12:16:16;;;;;;;0.30;0.13;;;;;;;;;;5385021;26;20011;-64
2024/04/19 12:19:03;;;;;;;0.10;0.10;;;;;;;;;;5371070;26;19992;-63
2024/04/19 12:21:49;;;;;;;0.30;0.13;;;;;;;;;;5392582;26;20012;-63
2024/04/19 12:24:37;;;;;;;3.20;0.90;;;;;;;;;;5398355;26;20448;-64
2024/04/19 12:27:23;;;;;;;2.85;0.20;;;;;;;;;;5389502;26;20565;-63
2024/04/19 12:30:09;;;;;;;424.00;67.50;;;;;;;;;;5397836;26;19991;-63
2024/04/19 12:32:56;;;;;;;31.20;6.50;;;;;;;;;;5396486;26;20000;-64
2024/04/19 12:35:42;;;;;;;2.97;0.75;;;;;;;;;;5390784;26;20007;-65
2024/04/19 12:38:28;;;;;;;0.73;0.40;;;;;;;;;;5398921;26;19995;-64
2024/04/19 12:41:15;;;;;;;0.43;0.30;;;;;;;;;;5397511;26;20684;-64
2024/04/19 12:44:01;;;;;;;82.25;11.88;;;;;;;;;;5398162;26;20514;-64
2024/04/19 12:46:48;;;;;;;;;;;;;;;;;;5399603;26;20661;-64
2024/04/19 12:49:34;;;;;;;4.07;0.88;;;;;;;;;;5405456;26;19924;-65
2024/04/19 12:52:20;;;;;;;0.65;0.30;;;;;;;;;;5396874;26;20830;-64
2024/04/19 12:55:07;;;;;;;3.22;0.20;;;;;;;;;;5395862;26;20106;-64
2024/04/19 12:57:53;;;;;;;0.40;0.30;;;;;;;;;;5390619;26;20596;-64
2024/04/19 13:00:39;;;;;;;0.40;0.30;;;;;;;;;;5390529;26;20018;-64
2024/04/19 13:03:25;;;;;;;0.60;0.60;;;;;;;;;;5389908;26;20481;-64
2024/04/19 13:06:12;;;;;;;1.52;0.45;;;;;;;;;;5396268;26;20038;-64
2024/04/19 13:08:58;;;;;;;0.50;0.30;;;;;;;;;;5375042;26;20194;-64
2024/04/19 13:11:44;;;;;;;0.30;0.30;;;;;;;;;;5402577;26;20465;-64
2024/04/19 13:14:31;;;;;;;0.68;0.30;;;;;;;;;;5396859;26;20004;-64
2024/04/19 13:17:17;;;;;;;1.20;0.28;;;;;;;;;;5399226;26;20475;-64
2024/04/19 13:20:03;;;;;;;1.75;0.32;;;;;;;;;;5399404;26;20077;-64
2024/04/19 13:22:50;;;;;;;0.35;0.35;;;;;;;;;;5389743;26;20000;-64
2024/04/19 13:25:36;;;;;;;2.80;0.22;;;;;;;;;;5404799;26;20021;-64
2024/04/19 13:28:23;;;;;;;0.30;0.30;;;;;;;;;;5385245;26;20431;-64
2024/04/19 13:31:09;;;;;;;0.32;0.25;;;;;;;;;;5398188;26;20018;-64
2024/04/19 13:33:55;;;;;;;2.47;0.50;;;;;;;;;;5393606;26;20008;-63
2024/04/19 13:36:42;;;;;;;0.32;0.30;;;;;;;;;;5401360;26;19996;-63
2024/04/19 13:39:28;;;;;;;0.43;0.30;;;;;;;;;;5394882;26;20088;-64
2024/04/19 13:42:15;;;;;;;;;;;;;;;;;;5397575;26;20724;-64
2024/04/19 13:45:01;;;;;;;0.30;0.30;;;;;;;;;;5402540;26;20378;-64
2024/04/19 13:47:49;;;;;;;0.77;0.50;;;;;;;;;;5389508;26;20004;-63
2024/04/19 13:50:35;;;;;;;3.42;0.40;;;;;;;;;;5391007;26;20688;-63
2024/04/19 13:53:21;;;;;;;0.85;0.40;;;;;;;;;;5391183;26;20348;-63
2024/04/19 13:56:08;;;;;;;0.57;0.28;;;;;;;;;;5404481;26;19991;-63
2024/04/19 13:58:54;;;;;;;0.30;0.30;;;;;;;;;;5395966;26;20081;-63
2024/04/19 14:01:40;;;;;;;2.13;0.50;;;;;;;;;;5395236;26;20018;-63
2024/04/19 14:04:27;;;;;;;2.53;0.30;;;;;;;;;;5397031;26;19996;-64
2024/04/19 14:07:13;;;;;;;0.40;0.30;;;;;;;;;;5395553;26;20007;-63
2024/04/19 14:09:59;;;;;;;0.20;0.20;;;;;;;;;;5396375;26;20011;-64
2024/04/19 14:12:54;;;;;;;22.45;1.85;;;;;;;;;;5389389;26;20004;-64
2024/04/19 14:15:41;;;;;;;0.77;0.30;;;;;;;;;;5391844;26;20634;-64
2024/04/19 14:18:27;;;;;;;0.20;0.20;;;;;;;;;;5388946;26;20007;-64
2024/04/19 14:21:13;;;;;;;1.17;0.38;;;;;;;;;;5400376;26;20005;-64
2024/04/19 14:23:59;;;;;;;1.50;0.30;;;;;;;;;;5392721;26;20004;-64
2024/04/19 14:26:47;;;;;;;0.30;0.30;;;;;;;;;;5395069;26;19999;-64
2024/04/19 14:29:33;;;;;;;0.65;0.32;;;;;;;;;;5369795;26;20475;-64
2024/04/19 14:32:19;;;;;;;1.35;0.30;;;;;;;;;;5396655;26;20003;-64
2024/04/19 14:35:06;;;;;;;0.35;0.30;;;;;;;;;;5401550;26;20770;-64
2024/04/19 14:37:53;;;;;;;2.72;0.32;;;;;;;;;;5397463;26;20018;-64
2024/04/19 14:40:39;;;;;;;1.30;0.50;;;;;;;;;;5393352;26;20000;-64
2024/04/19 14:43:33;;;;;;;0.95;0.47;;;;;;;;;;5392716;26;19999;-63
2024/04/19 14:46:20;;;;;;;0.50;0.30;;;;;;;;;;5404053;26;20508;-63
2024/04/19 14:49:06;;;;;;;0.30;0.20;;;;;;;;;;5395186;26;20035;-63
2024/04/19 14:51:52;;;;;;;0.52;0.20;;;;;;;;;;5382797;26;19996;-63
2024/04/19 14:54:38;;;;;;;1.55;0.38;;;;;;;;;;5397519;26;20638;-63
2024/04/19 14:57:25;;;;;;;0.77;0.30;;;;;;;;;;5372382;26;20422;-63
2024/04/19 15:00:11;;;;;;;;;;;;;;;;;;5403660;26;20006;-63
2024/04/19 15:02:58;;;;;;;0.40;0.40;;;;;;;;;;5396359;26;19925;-63
2024/04/19 15:05:44;;;;;;;0.93;0.40;;;;;;;;;;5400636;26;20039;-63
2024/04/19 15:08:30;;;;;;;0.82;0.40;;;;;;;;;;5400924;26;20014;-63
2024/04/19 15:11:17;;;;;;;0.68;0.50;;;;;;;;;;5398705;26;20487;-63
2024/04/19 15:14:03;;;;;;;;;;;;;;;;;;5397032;26;19991;-63
2024/04/19 15:16:50;;;;;;;2.33;0.30;;;;;;;;;;5387477;26;20270;-63
2024/04/19 15:19:36;;;;;;;0.57;0.40;;;;;;;;;;5400912;26;20026;-63
2024/04/19 15:22:22;;;;;;;0.82;0.40;;;;;;;;;;5394315;26;20116;-63
2024/04/19 15:25:10;;;;;;;2.50;0.55;;;;;;;;;;5403116;26;19996;-63
2024/04/19 15:27:56;;;;;;;0.95;0.40;;;;;;;;;;5386123;26;20341;-63
2024/04/19 15:30:42;;;;;;;3.42;0.90;;;;;;;;;;5399061;26;19996;-63
2024/04/19 15:33:29;;;;;;;0.63;0.40;;;;;;;;;;5382911;26;19995;-63
2024/04/19 15:36:15;;;;;;;1.45;0.90;;;;;;;;;;5395477;26;20538;-63
2024/04/19 15:39:02;;;;;;;2.65;0.70;;;;;;;;;;5375943;26;20090;-64
2024/04/19 15:41:48;;;;;;;1.48;0.50;;;;;;;;;;5378381;26;20380;-64
2024/04/19 15:44:34;;;;;;;1.50;0.70;;;;;;;;;;5392194;26;20097;-64
2024/04/19 15:47:21;;;;;;;1.52;0.60;;;;;;;;;;5387772;26;19999;-64
2024/04/19 15:50:07;;;;;;;2.30;0.88;;;;;;;;;;5392983;26;19999;-64
2024/04/19 15:52:53;;;;;;;2.90;0.80;;;;;;;;;;5404479;26;20023;-64
2024/04/19 15:55:39;;;;;;;1.90;0.65;;;;;;;;;;5400080;26;20027;-64
2024/04/19 15:58:26;;;;;;;1.25;0.60;;;;;;;;;;5385053;26;20343;-64